Time;durP1;ratioP1;P1;durP2;ratioP2;P2;SDS_P1;SDS_P2;PMS_P1;PMS_P2;Temp;Humidity;BMP_temperature;BMP_pressure;BME280_temperature;BME280_humidity;BME280_pressure;Samples;Min_cycle;Max_cycle;Signal;HPM_P1;HPM_P2
2022/12/18 00:00:31;;;;;;;;;;;14.60;42.60;;;;;;5093413;28;19916;-88
2022/12/18 00:02:57;;;;;;;;;;;14.60;42.60;;;;;;5094064;28;20367;-88
2022/12/18 00:05:23;;;;;;;;;;;14.60;42.60;;;;;;5092205;28;20266;-88
2022/12/18 00:07:48;;;;;;;;;;;14.60;42.60;;;;;;5093776;28;19921;-88
2022/12/18 00:10:14;;;;;;;;;;;14.50;42.50;;;;;;5093048;28;20423;-88
2022/12/18 00:12:39;;;;;;;;;;;14.50;42.50;;;;;;5092369;28;19908;-88
2022/12/18 00:15:06;;;;;;;;;;;14.50;42.60;;;;;;5090480;28;20350;-88
2022/12/18 00:17:31;;;;;;;;;;;14.50;42.60;;;;;;5092467;28;19908;-88
2022/12/18 00:19:57;;;;;;;;;;;14.40;42.60;;;;;;5093198;28;20177;-88
2022/12/18 00:22:22;;;;;;;;;;;14.40;42.60;;;;;;5092448;28;19909;-88
2022/12/18 00:24:48;;;;;;;;;;;14.40;42.60;;;;;;5093938;28;19908;-88
2022/12/18 00:27:13;;;;;;;;;;;14.30;42.60;;;;;;5093660;28;19947;-88
2022/12/18 00:29:42;;;;;;;;;;;14.30;42.60;;;;;;5093632;28;19908;-88
2022/12/18 00:32:07;;;;;;;;;;;14.30;42.70;;;;;;5093193;28;19919;-88
2022/12/18 00:34:33;;;;;;;;;;;14.20;42.70;;;;;;5093657;28;19908;-88
2022/12/18 00:36:59;;;;;;;;;;;14.20;42.80;;;;;;5094317;28;19919;-88
2022/12/18 00:39:24;;;;;;;;;;;14.20;42.80;;;;;;5093677;28;20204;-88
2022/12/18 00:44:35;;;;;;;;;;;14.00;42.80;;;;;;5093757;28;20255;-87
2022/12/18 00:47:00;;;;;;;;;;;14.00;42.90;;;;;;5094139;28;19908;-88
2022/12/18 00:49:26;;;;;;;;;;;14.00;42.90;;;;;;5096812;28;19915;-88
2022/12/18 00:51:51;;;;;;;;;;;13.90;42.90;;;;;;5095807;28;19950;-88
2022/12/18 00:54:17;;;;;;;;;;;13.90;42.90;;;;;;5109052;28;19916;-88
2022/12/18 00:56:43;;;;;;;;;;;13.90;42.90;;;;;;5092150;28;19938;-88
2022/12/18 00:59:08;;;;;;;;;;;13.80;42.90;;;;;;5094024;28;19916;-88
2022/12/18 01:01:34;;;;;;;;;;;13.80;42.90;;;;;;5093876;28;19916;-88
2022/12/18 01:04:01;;;;;;;;;;;13.70;42.90;;;;;;5092343;28;19968;-88
2022/12/18 01:06:26;;;;;;;;;;;13.70;43.00;;;;;;5090692;28;20001;-88
2022/12/18 01:08:52;;;;;;;;;;;13.60;43.00;;;;;;5093049;28;19962;-88
2022/12/18 01:11:18;;;;;;;;;;;13.60;43.10;;;;;;5092743;28;19908;-88
2022/12/18 01:13:44;;;;;;;;;;;13.60;43.10;;;;;;5093351;28;19908;-88
2022/12/18 01:16:13;;;;;;;;;;;13.50;43.10;;;;;;5094410;28;19919;-88
2022/12/18 01:18:39;;;;;;;;;;;13.50;43.10;;;;;;5093600;28;19969;-88
2022/12/18 01:21:06;;;;;;;;;;;13.50;43.20;;;;;;5093550;28;19916;-88
2022/12/18 01:23:31;;;;;;;;;;;13.40;43.20;;;;;;5093012;28;20282;-88
2022/12/18 01:25:57;;;;;;;;;;;13.40;43.30;;;;;;5094162;28;19999;-88
2022/12/18 01:28:23;;;;;;;;;;;13.30;43.30;;;;;;5092835;28;20341;-87
2022/12/18 01:30:49;;;;;;;;;;;13.30;43.30;;;;;;5093559;28;20006;-88
2022/12/18 01:33:14;;;;;;;;;;;13.30;43.40;;;;;;5093977;28;19909;-88
2022/12/18 01:35:41;;;;;;;;;;;13.20;43.40;;;;;;5094936;28;19923;-88
2022/12/18 01:38:07;;;;;;;;;;;13.20;43.80;;;;;;5095089;28;20298;-88
2022/12/18 01:40:32;;;;;;;;;;;13.20;43.80;;;;;;5094730;28;19908;-87
2022/12/18 01:42:58;;;;;;;;;;;13.10;43.40;;;;;;5094869;28;19914;-87
2022/12/18 01:45:25;;;;;;;;;;;13.10;43.40;;;;;;5097626;28;19914;-88
2022/12/18 01:47:53;;;;;;;;;;;13.20;43.40;;;;;;5098338;28;19992;-88
2022/12/18 01:50:20;;;;;;;;;;;13.20;43.30;;;;;;5096545;28;19908;-88
2022/12/18 01:52:48;;;;;;;;;;;13.30;43.20;;;;;;5097529;28;19908;-88
2022/12/18 01:55:15;;;;;;;;;;;13.30;43.10;;;;;;5096322;28;19916;-88
2022/12/18 01:57:41;;;;;;;;;;;13.40;43.10;;;;;;5096284;28;19985;-88
2022/12/18 02:00:08;;;;;;;;;;;13.40;43.00;;;;;;5098128;28;20266;-88
2022/12/18 02:02:34;;;;;;;;;;;13.40;43.00;;;;;;5097042;28;19947;-88
2022/12/18 02:05:00;;;;;;;;;;;13.30;42.90;;;;;;5096874;28;19966;-87
2022/12/18 02:07:32;;;;;;;;;;;13.30;42.90;;;;;;5098143;28;19919;-88
2022/12/18 02:10:03;;;;;;;;;;;13.30;42.90;;;;;;5097439;28;19922;-88
2022/12/18 02:12:34;;;;;;;;;;;13.30;42.90;;;;;;5097294;28;19909;-88
2022/12/18 02:15:20;;;;;;;;;;;13.20;42.90;;;;;;5096965;28;19908;-88
2022/12/18 02:17:58;;;;;;;;;;;13.20;42.90;;;;;;5097365;28;19991;-88
2022/12/18 02:20:26;;;;;;;;;;;13.20;43.00;;;;;;5097639;28;19908;-88
2022/12/18 02:23:13;;;;;;;;;;;13.10;43.00;;;;;;5097146;28;19947;-88
2022/12/18 02:25:53;;;;;;;;;;;13.10;43.10;;;;;;5097133;28;19927;-88
2022/12/18 02:28:20;;;;;;;;;;;13.00;43.00;;;;;;5097902;28;19909;-88
2022/12/18 02:30:47;;;;;;;;;;;12.90;43.10;;;;;;5096789;28;19919;-88
2022/12/18 02:33:13;;;;;;;;;;;12.80;43.10;;;;;;5096996;28;19919;-88
2022/12/18 02:35:40;;;;;;;;;;;12.80;43.20;;;;;;5096612;28;19964;-88
2022/12/18 02:38:06;;;;;;;;;;;12.70;43.30;;;;;;5097180;28;19918;-88
2022/12/18 02:40:32;;;;;;;;;;;12.60;43.30;;;;;;5097263;28;19908;-88
2022/12/18 02:43:11;;;;;;;;;;;12.60;43.40;;;;;;5096436;28;19908;-88
2022/12/18 02:45:46;;;;;;;;;;;12.60;43.40;;;;;;5095821;28;19970;-88
2022/12/18 02:48:11;;;;;;;;;;;12.50;43.40;;;;;;5095437;28;19922;-88
2022/12/18 02:50:45;;;;;;;;;;;12.50;43.50;;;;;;5095460;28;19911;-88
2022/12/18 02:53:11;;;;;;;;;;;12.40;43.50;;;;;;5095402;28;19919;-88
2022/12/18 02:55:55;;;;;;;;;;;12.40;43.60;;;;;;5094246;28;20193;-88
2022/12/18 02:58:21;;;;;;;;;;;12.30;43.60;;;;;;5095330;28;20189;-88
2022/12/18 03:00:51;;;;;;;;;;;12.30;43.70;;;;;;5096576;28;19908;-88
2022/12/18 03:03:37;;;;;;;;;;;12.20;43.70;;;;;;5096421;28;19995;-88
2022/12/18 03:06:07;;;;;;;;;;;12.20;43.80;;;;;;5097399;28;20194;-88
2022/12/18 03:08:36;;;;;;;;;;;12.10;43.80;;;;;;5096080;28;19950;-88
2022/12/18 03:11:08;;;;;;;;;;;12.10;43.80;;;;;;5097687;28;19908;-89
2022/12/18 03:13:38;;;;;;;;;;;12.10;43.90;;;;;;5095195;28;19943;-88
2022/12/18 03:16:05;;;;;;;;;;;12.00;43.90;;;;;;5095728;28;19912;-88
2022/12/18 03:18:49;;;;;;;;;;;12.00;44.00;;;;;;5096332;28;19908;-88
2022/12/18 03:21:17;;;;;;;;;;;12.00;44.00;;;;;;5094894;28;19919;-88
2022/12/18 03:23:44;;;;;;;;;;;12.00;44.10;;;;;;5095390;28;19969;-87
2022/12/18 03:26:12;;;;;;;;;;;12.00;44.10;;;;;;5095078;28;19916;-87
2022/12/18 03:28:41;;;;;;;;;;;12.00;44.10;;;;;;5096338;28;19916;-88
2022/12/18 03:31:09;;;;;;;;;;;12.00;44.10;;;;;;5096847;28;20065;-88
2022/12/18 03:33:39;;;;;;;;;;;12.00;44.10;;;;;;5096500;28;19908;-88
2022/12/18 03:36:05;;;;;;;;;;;12.00;44.10;;;;;;5096524;28;19912;-88
2022/12/18 03:38:30;;;;;;;;;;;11.90;44.10;;;;;;5096038;28;19908;-88
2022/12/18 03:41:17;;;;;;;;;;;11.90;44.20;;;;;;5097757;28;20197;-88
2022/12/18 03:43:49;;;;;;;;;;;11.90;44.20;;;;;;5097486;28;20293;-88
2022/12/18 03:46:30;;;;;;;;;;;11.90;44.60;;;;;;5097195;28;19908;-88
2022/12/18 03:48:58;;;;;;;;;;;11.90;44.20;;;;;;5096529;28;19935;-88
2022/12/18 03:51:27;;;;;;;;;;;11.90;44.20;;;;;;5096584;28;19919;-88
2022/12/18 03:53:56;;;;;;;;;;;11.90;44.30;;;;;;5097416;28;20003;-88
2022/12/18 03:56:22;;;;;;;;;;;11.80;44.20;;;;;;5096806;28;19977;-88
2022/12/18 03:58:49;;;;;;;;;;;11.80;44.20;;;;;;5097407;28;20354;-88
2022/12/18 04:01:16;;;;;;;;;;;11.80;44.60;;;;;;5096913;28;19908;-88
2022/12/18 04:03:42;;;;;;;;;;;11.80;44.30;;;;;;5096041;28;19999;-88
2022/12/18 04:06:08;;;;;;;;;;;11.70;44.30;;;;;;5096282;28;19919;-88
2022/12/18 04:08:34;;;;;;;;;;;11.70;44.30;;;;;;5095000;28;19904;-88
2022/12/18 04:11:01;;;;;;;;;;;11.80;44.50;;;;;;5097187;28;19908;-88
2022/12/18 04:13:32;;;;;;;;;;;12.70;43.70;;;;;;5097602;28;20270;-88
2022/12/18 04:15:58;;;;;;;;;;;13.80;42.50;;;;;;5096620;28;19916;-88
2022/12/18 04:18:23;;;;;;;;;;;14.40;41.70;;;;;;5097125;28;19912;-88
2022/12/18 04:20:49;;;;;;;;;;;14.70;41.20;;;;;;5095810;28;19908;-88
2022/12/18 04:23:15;;;;;;;;;;;14.90;41.00;;;;;;5093556;28;19908;-88
2022/12/18 04:25:42;;;;;;;;;;;15.20;40.70;;;;;;5093948;28;20654;-88
2022/12/18 04:28:08;;;;;;;;;;;15.50;40.40;;;;;;5096519;28;19912;-88
2022/12/18 04:30:34;;;;;;;;;;;15.90;40.10;;;;;;5095852;28;19935;-88
2022/12/18 04:32:59;;;;;;;;;;;16.20;39.70;;;;;;5096786;28;19912;-88
2022/12/18 04:35:25;;;;;;;;;;;16.40;39.60;;;;;;5094190;28;19986;-88
2022/12/18 04:37:50;;;;;;;;;;;16.50;39.40;;;;;;5094099;28;20010;-88
2022/12/18 04:40:16;;;;;;;;;;;16.70;39.30;;;;;;5094334;28;19916;-88
2022/12/18 04:42:41;;;;;;;;;;;16.90;39.10;;;;;;5095221;28;20173;-88
2022/12/18 04:45:07;;;;;;;;;;;17.10;39.00;;;;;;5094083;28;19970;-88
2022/12/18 04:47:33;;;;;;;;;;;17.20;38.90;;;;;;5094501;28;19908;-88
2022/12/18 04:49:59;;;;;;;;;;;17.30;38.90;;;;;;5095215;28;19908;-88
2022/12/18 04:52:24;;;;;;;;;;;17.40;38.90;;;;;;5095548;28;19959;-88
2022/12/18 04:54:50;;;;;;;;;;;17.60;38.80;;;;;;5093782;28;20113;-88
2022/12/18 04:57:17;;;;;;;;;;;17.70;39.00;;;;;;5094914;28;19920;-88
2022/12/18 04:59:43;;;;;;;;;;;17.80;38.60;;;;;;5092473;28;19909;-88
2022/12/18 05:02:09;;;;;;;;;;;17.90;38.60;;;;;;5093672;28;19969;-88
2022/12/18 05:04:35;;;;;;;;;;;17.90;38.60;;;;;;5093004;28;19916;-88
2022/12/18 05:07:00;;;;;;;;;;;17.90;38.50;;;;;;5093836;28;19915;-88
2022/12/18 05:09:26;;;;;;;;;;;18.00;38.50;;;;;;5093415;28;19998;-88
2022/12/18 05:11:51;;;;;;;;;;;18.00;38.50;;;;;;5094644;28;19908;-88
2022/12/18 05:14:17;;;;;;;;;;;18.10;38.50;;;;;;5094547;28;19915;-88
2022/12/18 05:16:43;;;;;;;;;;;18.10;38.40;;;;;;5094908;28;20431;-88
2022/12/18 05:19:08;;;;;;;;;;;18.10;38.50;;;;;;5096348;28;19908;-88
2022/12/18 05:21:34;;;;;;;;;;;18.00;38.50;;;;;;5097699;28;19947;-88
2022/12/18 05:23:59;;;;;;;;;;;17.90;38.60;;;;;;5097533;28;19908;-88
2022/12/18 05:26:25;;;;;;;;;;;17.80;38.70;;;;;;5098172;28;19950;-88
2022/12/18 05:28:51;;;;;;;;;;;17.60;38.90;;;;;;5096515;28;20224;-88
2022/12/18 05:31:16;;;;;;;;;;;17.50;39.00;;;;;;5096469;28;20303;-88
2022/12/18 05:33:42;;;;;;;;;;;17.30;39.20;;;;;;5096923;28;19908;-87
2022/12/18 05:36:08;;;;;;;;;;;17.10;39.40;;;;;;5097171;28;19923;-88
2022/12/18 05:38:35;;;;;;;;;;;16.90;39.50;;;;;;5097110;28;19915;-88
2022/12/18 05:41:01;;;;;;;;;;;16.80;39.70;;;;;;5097151;28;19991;-88
2022/12/18 05:43:27;;;;;;;;;;;16.60;39.90;;;;;;5097350;28;20314;-88
2022/12/18 05:45:53;;;;;;;;;;;16.50;40.00;;;;;;5096287;28;19968;-88
2022/12/18 05:48:19;;;;;;;;;;;16.40;40.20;;;;;;5096323;28;19975;-87
2022/12/18 05:50:46;;;;;;;;;;;16.30;40.30;;;;;;5098114;28;20190;-88
2022/12/18 05:53:12;;;;;;;;;;;16.20;40.40;;;;;;5096885;28;19908;-88
2022/12/18 05:55:39;;;;;;;;;;;16.10;40.40;;;;;;5096150;28;19938;-88
2022/12/18 05:58:05;;;;;;;;;;;16.00;40.50;;;;;;5097391;28;19909;-88
2022/12/18 06:00:32;;;;;;;;;;;16.10;40.60;;;;;;5096554;28;19947;-88
2022/12/18 06:02:58;;;;;;;;;;;16.20;40.50;;;;;;5096952;28;20327;-88
2022/12/18 06:05:24;;;;;;;;;;;16.30;40.30;;;;;;5096448;28;19908;-88
2022/12/18 06:07:50;;;;;;;;;;;16.60;40.10;;;;;;5096302;28;19908;-87
2022/12/18 06:10:16;;;;;;;;;;;16.90;39.80;;;;;;5099599;28;19908;-89
2022/12/18 06:12:41;;;;;;;;;;;17.20;39.50;;;;;;5106368;28;19912;-88
2022/12/18 06:15:07;;;;;;;;;;;17.40;39.30;;;;;;5097235;28;20160;-88
2022/12/18 06:17:33;;;;;;;;;;;17.50;39.20;;;;;;5096457;28;20274;-87
2022/12/18 06:19:59;;;;;;;;;;;17.60;39.10;;;;;;5095862;28;20002;-87
2022/12/18 06:22:24;;;;;;;;;;;17.80;38.90;;;;;;5096133;28;20239;-88
2022/12/18 06:24:50;;;;;;;;;;;17.90;38.80;;;;;;5095256;28;19908;-88
2022/12/18 06:27:16;;;;;;;;;;;18.00;38.80;;;;;;5094343;28;19955;-88
2022/12/18 06:29:42;;;;;;;;;;;18.00;38.70;;;;;;5094759;28;19962;-88
2022/12/18 06:32:07;;;;;;;;;;;18.00;38.70;;;;;;5095175;28;19916;-88
2022/12/18 06:34:33;;;;;;;;;;;18.00;39.10;;;;;;5093305;28;19957;-88
2022/12/18 06:36:59;;;;;;;;;;;18.00;38.70;;;;;;5093421;28;19916;-88
2022/12/18 06:39:27;;;;;;;;;;;18.00;38.70;;;;;;5094697;28;19985;-88
2022/12/18 06:41:52;;;;;;;;;;;17.90;38.70;;;;;;5095024;28;19943;-88
2022/12/18 06:44:18;;;;;;;;;;;17.80;38.80;;;;;;5095053;28;19948;-88
2022/12/18 06:46:44;;;;;;;;;;;17.70;38.90;;;;;;5096369;28;20289;-88
2022/12/18 06:49:09;;;;;;;;;;;17.50;39.00;;;;;;5097376;28;19919;-88
2022/12/18 06:51:35;;;;;;;;;;;17.40;39.10;;;;;;5096508;28;19908;-88
2022/12/18 06:54:01;;;;;;;;;;;17.30;39.20;;;;;;5094622;28;19979;-88
2022/12/18 06:56:27;;;;;;;;;;;17.20;39.30;;;;;;5094417;28;19916;-88
2022/12/18 06:58:53;;;;;;;;;;;17.10;39.40;;;;;;5095158;28;19939;-88
2022/12/18 07:01:18;;;;;;;;;;;17.00;39.50;;;;;;5093805;28;19962;-88
2022/12/18 07:03:44;;;;;;;;;;;16.90;39.70;;;;;;5095021;28;19908;-88
2022/12/18 07:06:14;;;;;;;;;;;16.80;39.80;;;;;;5094212;28;20209;-88
2022/12/18 07:08:40;;;;;;;;;;;16.70;39.80;;;;;;5093380;28;20107;-88
2022/12/18 07:11:05;;;;;;;;;;;16.70;39.80;;;;;;5092106;28;19955;-88
2022/12/18 07:13:31;;;;;;;;;;;16.70;39.80;;;;;;5093087;28;19912;-88
2022/12/18 07:16:04;;;;;;;;;;;16.80;39.80;;;;;;5093887;28;19977;-88
2022/12/18 07:18:30;;;;;;;;;;;16.80;39.70;;;;;;5094036;28;19942;-88
2022/12/18 07:20:55;;;;;;;;;;;17.00;39.60;;;;;;5094879;28;19925;-88
2022/12/18 07:23:21;;;;;;;;;;;17.20;39.40;;;;;;5094297;28;19916;-88
2022/12/18 07:25:47;;;;;;;;;;;17.40;39.20;;;;;;5093715;28;19925;-88
2022/12/18 07:28:12;;;;;;;;;;;17.50;39.00;;;;;;5093800;28;19908;-88
2022/12/18 07:30:38;;;;;;;;;;;17.70;38.90;;;;;;5095663;28;19908;-88
2022/12/18 07:33:04;;;;;;;;;;;17.70;38.80;;;;;;5092923;28;20249;-88
2022/12/18 07:35:29;;;;;;;;;;;17.80;38.80;;;;;;5093149;28;19989;-88
2022/12/18 07:37:55;;;;;;;;;;;17.90;38.70;;;;;;5094460;28;20171;-88
2022/12/18 07:40:20;;;;;;;;;;;17.90;38.60;;;;;;5093980;28;20295;-88
2022/12/18 07:42:46;;;;;;;;;;;17.90;38.60;;;;;;5093839;28;19908;-88
2022/12/18 07:45:12;;;;;;;;;;;18.00;38.70;;;;;;5095124;28;19912;-88
2022/12/18 07:47:37;;;;;;;;;;;18.00;38.60;;;;;;5093760;28;20243;-88
2022/12/18 07:50:04;;;;;;;;;;;18.00;38.50;;;;;;5094793;28;20224;-88
2022/12/18 07:52:30;;;;;;;;;;;18.10;38.60;;;;;;5092756;28;19943;-88
2022/12/18 07:54:55;;;;;;;;;;;18.10;38.50;;;;;;5092700;28;20400;-88
2022/12/18 07:57:21;;;;;;;;;;;18.10;38.50;;;;;;5092045;28;19912;-88
2022/12/18 07:59:46;;;;;;;;;;;18.10;38.50;;;;;;5092688;28;19925;-88
2022/12/18 08:02:12;;;;;;;;;;;18.10;38.50;;;;;;5092794;28;20183;-88
2022/12/18 08:04:38;;;;;;;;;;;18.10;38.50;;;;;;5092016;28;19908;-88
2022/12/18 08:07:03;;;;;;;;;;;18.00;38.50;;;;;;5093239;28;19916;-88
2022/12/18 08:09:29;;;;;;;;;;;18.00;38.60;;;;;;5092991;28;20239;-88
2022/12/18 08:11:54;;;;;;;;;;;17.80;38.70;;;;;;5093751;28;19951;-88
2022/12/18 08:14:20;;;;;;;;;;;17.70;38.80;;;;;;5093752;28;19918;-88
2022/12/18 08:16:46;;;;;;;;;;;17.50;39.00;;;;;;5092808;28;19938;-88
2022/12/18 08:19:11;;;;;;;;;;;17.40;39.10;;;;;;5093228;28;20173;-88
2022/12/18 08:21:37;;;;;;;;;;;17.20;39.40;;;;;;5093788;28;20182;-88
2022/12/18 08:24:03;;;;;;;;;;;17.00;39.40;;;;;;5093021;28;19912;-88
2022/12/18 08:26:30;;;;;;;;;;;16.90;39.60;;;;;;5089661;28;19919;-88
2022/12/18 08:28:56;;;;;;;;;;;16.80;39.80;;;;;;5092208;28;20002;-88
2022/12/18 08:31:21;;;;;;;;;;;16.70;39.80;;;;;;5094659;28;20002;-88
2022/12/18 08:33:51;;;;;;;;;;;16.80;39.90;;;;;;5095121;28;19908;-88
2022/12/18 08:36:17;;;;;;;;;;;17.00;40.00;;;;;;5093251;28;20269;-88
2022/12/18 08:38:42;;;;;;;;;;;17.20;39.30;;;;;;5093575;28;19908;-88
2022/12/18 08:41:12;;;;;;;;;;;17.50;39.20;;;;;;5094582;28;19908;-89
2022/12/18 08:46:23;;;;;;;;;;;18.10;38.60;;;;;;5095593;28;19915;-88
2022/12/18 08:48:50;;;;;;;;;;;18.50;38.40;;;;;;5093638;28;20007;-88
2022/12/18 08:51:17;;;;;;;;;;;18.70;38.20;;;;;;5093335;28;19908;-88
2022/12/18 08:53:43;;;;;;;;;;;18.80;38.10;;;;;;5092940;28;19908;-89
2022/12/18 08:56:08;;;;;;;;;;;19.00;38.00;;;;;;5097521;28;19926;-89
2022/12/18 08:58:34;;;;;;;;;;;19.20;37.80;;;;;;5097167;28;19909;-89
2022/12/18 09:01:04;;;;;;;;;;;19.60;37.60;;;;;;5096533;28;19955;-89
2022/12/18 09:03:30;;;;;;;;;;;19.80;37.40;;;;;;5096537;28;19955;-89
2022/12/18 09:05:56;;;;;;;;;;;20.20;37.20;;;;;;5096380;28;19951;-89
2022/12/18 09:08:21;;;;;;;;;;;20.70;37.00;;;;;;5097309;28;20158;-89
2022/12/18 09:10:48;;;;;;;;;;;20.90;36.60;;;;;;5096866;28;19918;-89
2022/12/18 09:13:15;;;;;;;;;;;20.90;36.40;;;;;;5097467;28;19909;-89
2022/12/18 09:15:42;;;;;;;;;;;21.10;36.50;;;;;;5095703;28;19919;-89
2022/12/18 09:18:07;;;;;;;;;;;21.10;36.30;;;;;;5096511;28;19987;-89
2022/12/18 09:20:33;;;;;;;;;;;21.00;36.40;;;;;;5096224;28;20348;-89
2022/12/18 09:22:58;;;;;;;;;;;20.60;36.50;;;;;;5096017;28;19912;-89
2022/12/18 09:25:24;;;;;;;;;;;20.20;36.80;;;;;;5094620;28;19972;-89
2022/12/18 09:27:49;;;;;;;;;;;19.90;37.00;;;;;;5093901;28;19934;-89
2022/12/18 09:30:15;;;;;;;;;;;19.60;37.30;;;;;;5094797;28;19936;-90
2022/12/18 09:32:41;;;;;;;;;;;19.40;37.50;;;;;;5095822;28;20288;-89
2022/12/18 09:35:06;;;;;;;;;;;19.20;37.70;;;;;;5095078;28;19961;-89
2022/12/18 09:37:32;;;;;;;;;;;19.10;37.90;;;;;;5094146;28;20227;-89
2022/12/18 09:39:58;;;;;;;;;;;18.90;38.30;;;;;;5094415;28;19911;-89
2022/12/18 09:42:23;;;;;;;;;;;18.80;38.00;;;;;;5094595;28;20380;-89
2022/12/18 09:44:50;;;;;;;;;;;18.80;38.00;;;;;;5092673;28;19916;-89
2022/12/18 09:47:23;;;;;;;;;;;18.70;38.20;;;;;;5093202;28;19908;-89
2022/12/18 09:49:50;;;;;;;;;;;18.70;38.30;;;;;;5092888;28;19912;-88
2022/12/18 09:52:23;;;;;;;;;;;18.70;38.30;;;;;;5095418;28;19922;-89
2022/12/18 09:54:59;;;;;;;;;;;18.70;38.30;;;;;;5094011;28;19985;-89
2022/12/18 09:57:25;;;;;;;;;;;18.90;38.50;;;;;;5092489;28;20003;-89
2022/12/18 10:00:04;;;;;;;;;;;19.20;37.90;;;;;;5093307;28;19908;-89
2022/12/18 10:02:31;;;;;;;;;;;19.30;37.80;;;;;;5091838;28;20231;-89
2022/12/18 10:05:19;;;;;;;;;;;19.50;37.90;;;;;;5090740;28;19908;-89
2022/12/18 10:08:04;;;;;;;;;;;19.60;37.80;;;;;;5091712;28;20175;-89
2022/12/18 10:10:35;;;;;;;;;;;19.70;37.80;;;;;;5092219;28;19908;-89
2022/12/18 10:13:01;;;;;;;;;;;19.70;37.70;;;;;;5092690;28;19956;-89
2022/12/18 10:15:30;;;;;;;;;;;19.70;37.80;;;;;;5091894;28;20310;-89
2022/12/18 10:18:19;;;;;;;;;;;19.60;37.90;;;;;;5093035;28;19918;-89
2022/12/18 10:21:03;;;;;;;;;;;19.60;37.90;;;;;;5090962;28;19908;-88
2022/12/18 10:23:29;;;;;;;;;;;19.60;37.90;;;;;;5093272;28;20153;-89
2022/12/18 10:26:05;;;;;;;;;;;19.50;37.90;;;;;;5092622;28;19916;-89
2022/12/18 10:28:32;;;;;;;;;;;19.40;38.00;;;;;;5093601;28;20070;-89
2022/12/18 10:30:58;;;;;;;;;;;19.30;38.50;;;;;;5092951;28;20108;-88
2022/12/18 10:33:27;;;;;;;;;;;19.10;38.20;;;;;;5095246;28;19958;-90
2022/12/18 10:35:53;;;;;;;;;;;19.00;38.40;;;;;;5094493;28;20293;-89
2022/12/18 10:38:19;;;;;;;;;;;18.80;38.50;;;;;;5092001;28;19923;-89
2022/12/18 10:40:47;;;;;;;;;;;18.70;38.70;;;;;;5092788;28;19908;-89
2022/12/18 10:43:14;;;;;;;;;;;18.60;38.80;;;;;;5092037;28;19908;-89
2022/12/18 10:45:41;;;;;;;;;;;18.40;39.00;;;;;;5093195;28;19951;-89
2022/12/18 10:48:33;;;;;;;;;;;18.40;39.20;;;;;;5093643;28;19908;-89
2022/12/18 10:50:59;;;;;;;;;;;18.20;39.30;;;;;;5093445;28;20260;-89
2022/12/18 10:53:29;;;;;;;;;;;18.10;39.50;;;;;;5095406;28;19935;-89
2022/12/18 10:55:56;;;;;;;;;;;18.00;39.60;;;;;;5093121;28;19919;-89
2022/12/18 10:58:28;;;;;;;;;;;17.90;39.80;;;;;;5092273;28;19943;-89
2022/12/18 11:01:11;;;;;;;;;;;17.80;40.10;;;;;;5091619;28;20182;-89
2022/12/18 11:03:42;;;;;;;;;;;17.70;40.20;;;;;;5091821;28;19915;-89
2022/12/18 11:06:10;;;;;;;;;;;17.60;40.20;;;;;;5091070;28;19908;-89
2022/12/18 11:08:36;;;;;;;;;;;17.60;40.20;;;;;;5091326;28;19919;-89
2022/12/18 11:11:02;;;;;;;;;;;17.60;40.30;;;;;;5094533;28;19912;-88
2022/12/18 11:13:29;;;;;;;;;;;17.70;40.30;;;;;;5090790;28;19931;-89
2022/12/18 11:15:55;;;;;;;;;;;17.70;40.20;;;;;;5091304;28;20270;-89
2022/12/18 11:18:26;;;;;;;;;;;17.80;40.20;;;;;;5092900;28;19908;-89
2022/12/18 11:21:15;;;;;;;;;;;17.90;40.10;;;;;;5090646;28;19908;-89
2022/12/18 11:23:58;;;;;;;;;;;18.00;40.00;;;;;;5091328;28;19915;-89
2022/12/18 11:26:33;;;;;;;;;;;18.10;40.00;;;;;;5089703;28;19920;-89
2022/12/18 11:29:09;;;;;;;;;;;18.20;39.90;;;;;;5090199;28;20015;-89
2022/12/18 11:31:35;;;;;;;;;;;18.20;39.80;;;;;;5089331;28;20006;-89
2022/12/18 11:34:04;;;;;;;;;;;18.10;39.80;;;;;;5087842;28;20055;-89
2022/12/18 11:36:33;;;;;;;;;;;18.10;39.90;;;;;;5087718;28;19974;-89
2022/12/18 11:39:00;;;;;;;;;;;18.00;40.00;;;;;;5087212;28;20026;-89
2022/12/18 11:44:24;;;;;;;;;;;17.70;40.30;;;;;;5084309;28;20145;-89
2022/12/18 11:46:52;;;;;;;;;;;17.60;40.50;;;;;;5090874;28;20300;-89
2022/12/18 11:49:21;;;;;;;;;;;17.40;40.60;;;;;;5089315;28;19908;-89
2022/12/18 11:51:51;;;;;;;;;;;17.30;40.80;;;;;;5087837;28;19908;-88
2022/12/18 11:54:17;;;;;;;;;;;17.20;40.90;;;;;;5088512;28;19908;-89
2022/12/18 11:57:03;;;;;;;;;;;17.10;41.00;;;;;;5086284;28;19942;-89
2022/12/18 11:59:44;;;;;;;;;;;17.20;40.90;;;;;;5087013;28;20076;-89
2022/12/18 12:02:39;;;;;;;;;;;17.30;40.90;;;;;;5084104;28;19981;-89
2022/12/18 12:05:11;;;;;;;;;;;17.50;40.60;;;;;;5080928;28;20084;-89
2022/12/18 12:07:37;;;;;;;;;;;17.70;40.40;;;;;;5089319;28;19908;-89
2022/12/18 12:10:09;;;;;;;;;;;18.00;40.20;;;;;;5088326;28;20177;-90
2022/12/18 12:12:53;;;;;;;;;;;18.20;40.00;;;;;;5088426;28;19908;-89
2022/12/18 12:15:38;;;;;;;;;;;18.40;39.80;;;;;;5088147;28;19973;-89
2022/12/18 12:18:12;;;;;;;;;;;18.50;39.60;;;;;;5091155;28;19957;-89
2022/12/18 12:20:38;;;;;;;;;;;18.60;39.50;;;;;;5089708;28;19908;-89
2022/12/18 12:23:16;;;;;;;;;;;18.70;39.50;;;;;;5088801;28;20064;-89
2022/12/18 12:26:00;;;;;;;;;;;18.60;39.50;;;;;;5086860;28;19915;-90
2022/12/18 12:28:32;;;;;;;;;;;18.60;39.50;;;;;;5087414;28;20269;-89
2022/12/18 12:31:17;;;;;;;;;;;18.60;39.50;;;;;;5087465;28;19908;-89
2022/12/18 12:34:01;;;;;;;;;;;18.50;39.60;;;;;;5087341;28;20016;-89
2022/12/18 12:36:37;;;;;;;;;;;18.40;39.50;;;;;;5087222;28;20068;-89
2022/12/18 12:39:05;;;;;;;;;;;18.20;39.70;;;;;;5087434;28;19908;-89
2022/12/18 12:44:23;;;;;;;;;;;18.00;40.00;;;;;;5088016;28;20288;-89
2022/12/18 12:46:52;;;;;;;;;;;17.80;40.20;;;;;;5088638;28;19985;-89
2022/12/18 12:49:21;;;;;;;;;;;17.60;40.30;;;;;;5088733;28;19935;-89
2022/12/18 12:51:52;;;;;;;;;;;17.50;40.50;;;;;;5087095;28;19912;-89
2022/12/18 12:54:20;;;;;;;;;;;17.40;40.70;;;;;;5088135;28;19909;-89
2022/12/18 12:56:52;;;;;;;;;;;17.30;40.80;;;;;;5087294;28;20227;-89
2022/12/18 12:59:25;;;;;;;;;;;17.20;40.90;;;;;;5087926;28;19962;-89
2022/12/18 13:01:54;;;;;;;;;;;17.10;41.00;;;;;;5088579;28;19999;-89
2022/12/18 13:04:31;;;;;;;;;;;16.90;41.40;;;;;;5087668;28;20248;-88
2022/12/18 13:07:00;;;;;;;;;;;16.90;41.60;;;;;;5089037;28;19916;-89
2022/12/18 13:09:29;;;;;;;;;;;16.90;41.50;;;;;;5087480;28;19908;-89
2022/12/18 13:14:45;;;;;;;;;;;16.80;41.40;;;;;;5089144;28;20019;-88
2022/12/18 13:17:14;;;;;;;;;;;16.80;41.40;;;;;;5086594;28;20443;-89
2022/12/18 13:19:40;;;;;;;;;;;16.80;41.60;;;;;;5087677;28;19938;-89
2022/12/18 13:22:20;;;;;;;;;;;16.80;41.60;;;;;;5086826;28;20248;-89
2022/12/18 13:24:45;;;;;;;;;;;16.80;41.50;;;;;;5087742;28;20047;-89
2022/12/18 13:27:34;;;;;;;;;;;16.90;41.50;;;;;;5086685;28;19946;-89
2022/12/18 13:29:59;;;;;;;;;;;16.90;41.40;;;;;;5087800;28;19988;-89
2022/12/18 13:32:25;;;;;;;;;;;17.00;41.30;;;;;;5086981;28;19912;-88
2022/12/18 13:35:10;;;;;;;;;;;17.10;41.30;;;;;;5087551;28;20002;-89
2022/12/18 13:37:36;;;;;;;;;;;17.10;41.10;;;;;;5087843;28;19912;-89
2022/12/18 13:40:01;;;;;;;;;;;17.10;41.00;;;;;;5088060;28;19908;-89
2022/12/18 13:45:38;;;;;;;;;;;17.20;40.80;;;;;;5092264;28;19919;-89
2022/12/18 13:48:04;;;;;;;;;;;17.20;40.70;;;;;;5093186;28;19999;-89
2022/12/18 13:50:30;;;;;;;;;;;17.30;40.60;;;;;;5093192;28;19999;-89
2022/12/18 13:52:55;;;;;;;;;;;17.40;40.50;;;;;;5089460;28;20176;-89
2022/12/18 13:55:22;;;;;;;;;;;17.50;40.50;;;;;;5091836;28;19908;-89
2022/12/18 13:57:47;;;;;;;;;;;17.60;40.20;;;;;;5091109;28;19912;-89
2022/12/18 14:00:31;;;;;;;;;;;17.60;40.10;;;;;;5092761;28;19908;-89
2022/12/18 14:02:57;;;;;;;;;;;17.70;40.20;;;;;;5092435;28;19919;-89
2022/12/18 14:05:23;;;;;;;;;;;17.70;40.10;;;;;;5090917;28;19912;-90
2022/12/18 14:07:49;;;;;;;;;;;17.60;40.00;;;;;;5092037;28;19908;-89
2022/12/18 14:10:16;;;;;;;;;;;17.60;40.10;;;;;;5091568;28;19944;-88
2022/12/18 14:12:57;;;;;;;;;;;17.60;40.20;;;;;;5092957;28;19919;-88
2022/12/18 14:15:25;;;;;;;;;;;17.50;40.20;;;;;;5092429;28;20162;-89
2022/12/18 14:17:52;;;;;;;;;;;17.40;40.20;;;;;;5094255;28;19939;-89
2022/12/18 14:20:18;;;;;;;;;;;17.30;40.50;;;;;;5093690;28;19948;-89
2022/12/18 14:22:48;;;;;;;;;;;17.20;40.50;;;;;;5093231;28;19954;-89
2022/12/18 14:25:18;;;;;;;;;;;17.10;40.70;;;;;;5093880;28;19923;-89
2022/12/18 14:27:46;;;;;;;;;;;16.90;40.80;;;;;;5093754;28;20258;-89
2022/12/18 14:30:23;;;;;;;;;;;16.80;40.90;;;;;;5092456;28;19908;-89
2022/12/18 14:33:03;;;;;;;;;;;16.70;41.00;;;;;;5092983;28;19933;-89
2022/12/18 14:35:29;;;;;;;;;;;16.50;41.00;;;;;;5093050;28;19908;-89
2022/12/18 14:38:08;;;;;;;;;;;16.40;41.20;;;;;;5090109;28;19919;-89
2022/12/18 14:40:34;;;;;;;;;;;16.30;41.40;;;;;;5091154;28;20318;-89